createdAt,value
2024-04-09T00:01:03.265Z,79.18
2024-04-09T00:03:33.656Z,79.53
2024-04-09T00:06:00.643Z,79.77
2024-04-09T00:08:30.208Z,80.25
2024-04-09T00:10:57.705Z,80.49
2024-04-09T00:13:26.514Z,79.87
2024-04-09T00:15:53.127Z,80.94
2024-04-09T00:18:19.872Z,79.88
2024-04-09T00:20:50.098Z,81.85
2024-04-09T00:23:19.608Z,80.04
2024-04-09T00:25:46.652Z,80.08
2024-04-09T00:28:13.699Z,80.12
2024-04-09T00:30:42.850Z,79.94
2024-04-09T00:33:10.265Z,79.79
2024-04-09T00:35:36.906Z,79.93
2024-04-09T00:38:07.730Z,80.52
2024-04-09T00:40:37.507Z,80.08
2024-04-09T00:43:05.275Z,79.99
2024-04-09T00:45:32.626Z,79.79
2024-04-09T00:48:03.503Z,79.78
2024-04-09T00:50:30.891Z,79.73
2024-04-09T00:52:59.931Z,79.02
2024-04-09T00:55:27.244Z,79.73
2024-04-09T00:57:54.756Z,79.93
2024-04-09T01:00:21.711Z,79.11
2024-04-09T01:02:51.406Z,79.50
2024-04-09T01:05:18.303Z,79.85
2024-04-09T01:07:45.720Z,79.45
2024-04-09T01:10:12.722Z,79.62
2024-04-09T01:12:39.443Z,79.29
2024-04-09T01:15:06.337Z,79.57
2024-04-09T01:17:34.593Z,79.82
2024-04-09T01:20:01.320Z,79.11
2024-04-09T01:22:32.321Z,79.51
2024-04-09T01:24:58.852Z,81.13
2024-04-09T01:27:26.783Z,79.03
2024-04-09T01:29:55.845Z,79.13
2024-04-09T01:32:22.521Z,78.82
2024-04-09T01:34:49.313Z,79.81
2024-04-09T01:37:19.032Z,79.52
2024-04-09T01:39:46.983Z,80.30
2024-04-09T01:42:13.676Z,79.80
2024-04-09T01:44:40.312Z,79.64
2024-04-09T01:47:07.006Z,79.36
2024-04-09T01:49:33.641Z,79.72
2024-04-09T01:52:00.314Z,79.63
2024-04-09T01:54:26.977Z,79.83
2024-04-09T01:56:54.024Z,80.27
2024-04-09T01:59:20.526Z,79.73
2024-04-09T02:01:47.033Z,80.25
2024-04-09T02:04:14.170Z,80.52
2024-04-09T02:06:44.018Z,80.23
2024-04-09T02:09:11.639Z,80.07
2024-04-09T02:11:38.743Z,79.33
2024-04-09T02:14:05.893Z,79.84
2024-04-09T02:16:33.162Z,80.22
2024-04-09T02:18:59.967Z,80.52
2024-04-09T02:21:26.762Z,80.23
2024-04-09T02:23:53.649Z,79.86
2024-04-09T02:26:20.175Z,79.91
2024-04-09T02:28:46.706Z,80.07
2024-04-09T02:31:13.734Z,79.72
2024-04-09T02:33:40.425Z,80.33
2024-04-09T02:36:07.544Z,80.03
2024-04-09T02:38:38.768Z,81.18
2024-04-09T02:41:08.895Z,80.79
2024-04-09T02:43:36.374Z,79.78
2024-04-09T02:46:03.083Z,79.55
2024-04-09T02:48:30.077Z,80.55
2024-04-09T02:51:02.506Z,80.26
2024-04-09T02:53:29.084Z,79.66
2024-04-09T02:56:05.796Z,80.23
2024-04-09T02:58:33.623Z,79.75
2024-04-09T03:01:05.952Z,80.22
2024-04-09T03:03:33.312Z,80.34
2024-04-09T03:06:08.862Z,79.56
2024-04-09T03:08:35.934Z,80.09
2024-04-09T03:11:02.954Z,81.10
2024-04-09T03:13:29.476Z,82.15
2024-04-09T03:15:56.951Z,81.53
2024-04-09T03:18:24.336Z,80.02
2024-04-09T03:20:59.027Z,80.31
2024-04-09T03:23:25.608Z,80.01
2024-04-09T03:25:52.128Z,80.82
2024-04-09T03:28:18.630Z,79.81
2024-04-09T03:30:45.214Z,80.22
2024-04-09T03:33:11.887Z,80.75
2024-04-09T03:35:38.529Z,80.01
2024-04-09T03:38:05.079Z,81.86
2024-04-09T03:40:32.386Z,80.15
2024-04-09T03:42:58.891Z,79.63
2024-04-09T03:45:25.509Z,79.58
2024-04-09T03:47:52.140Z,80.22
2024-04-09T03:50:18.681Z,81.49
2024-04-09T03:52:45.254Z,79.62
2024-04-09T03:55:12.549Z,80.21
2024-04-09T03:57:40.141Z,80.71
2024-04-09T04:00:13.054Z,83.02
2024-04-09T04:02:40.531Z,81.42
2024-04-09T04:05:07.293Z,81.24
2024-04-09T04:07:33.902Z,79.97
2024-04-09T04:10:00.408Z,80.29
2024-04-09T04:12:27.009Z,80.70
2024-04-09T04:14:53.581Z,81.93
2024-04-09T04:17:20.191Z,80.94
2024-04-09T04:19:46.878Z,84.16
2024-04-09T04:22:14.453Z,81.40
2024-04-09T04:24:41.105Z,82.42
2024-04-09T04:27:08.295Z,82.04
2024-04-09T04:29:35.228Z,83.40
2024-04-09T04:32:01.728Z,81.40
2024-04-09T04:34:28.359Z,81.65
2024-04-09T04:36:54.948Z,81.79
2024-04-09T04:39:22.103Z,82.24
2024-04-09T04:41:48.705Z,81.41
2024-04-09T04:44:15.360Z,80.73
2024-04-09T04:46:42.343Z,81.36
2024-04-09T04:49:09.400Z,81.04
2024-04-09T04:51:36.121Z,82.17
2024-04-09T04:54:02.767Z,82.83
2024-04-09T04:56:29.328Z,80.26
2024-04-09T04:58:55.859Z,81.55
2024-04-09T05:01:22.802Z,79.22
2024-04-09T05:03:49.862Z,79.09
2024-04-09T05:06:17.092Z,79.22
2024-04-09T05:08:43.646Z,79.37
2024-04-09T05:11:10.672Z,80.13
2024-04-09T05:13:37.325Z,79.97
2024-04-09T05:16:04.180Z,79.46
2024-04-09T05:18:31.459Z,79.49
2024-04-09T05:20:58.080Z,79.70
2024-04-09T05:23:42.493Z,80.19
2024-04-09T05:26:09.331Z,79.66
2024-04-09T05:28:35.865Z,79.51
2024-04-09T05:31:02.409Z,79.75
2024-04-09T05:33:29.011Z,78.74
2024-04-09T05:35:55.898Z,79.45
2024-04-09T05:38:22.418Z,79.92
2024-04-09T05:40:56.237Z,78.82
2024-04-09T05:43:23.235Z,79.36
2024-04-09T05:45:49.954Z,79.80
2024-04-09T05:48:16.804Z,80.12
2024-04-09T05:50:43.392Z,78.23
2024-04-09T05:53:09.945Z,77.64
2024-04-09T05:55:37.113Z,77.44
2024-04-09T05:58:06.236Z,77.44
2024-04-09T06:00:32.957Z,77.66
2024-04-09T06:02:59.696Z,77.53
2024-04-09T06:05:26.307Z,76.85
2024-04-09T06:07:52.829Z,76.92
2024-04-09T06:10:20.703Z,78.45
2024-04-09T06:12:48.393Z,76.38
2024-04-09T06:15:15.256Z,75.96
2024-04-09T06:17:42.067Z,76.99
2024-04-09T06:20:09.313Z,75.57
2024-04-09T06:22:36.235Z,76.10
2024-04-09T06:25:02.888Z,75.19
2024-04-09T06:27:29.511Z,74.64
2024-04-09T06:29:56.570Z,75.29
2024-04-09T06:32:23.166Z,73.85
2024-04-09T06:34:49.751Z,73.69
2024-04-09T06:37:16.356Z,73.59
2024-04-09T06:39:43.201Z,73.50
2024-04-09T06:42:09.871Z,73.27
2024-04-09T06:44:36.461Z,73.53
2024-04-09T06:47:03.424Z,73.19
2024-04-09T06:49:30.150Z,72.44
2024-04-09T06:51:56.851Z,71.93
2024-04-09T06:54:23.522Z,71.57
2024-04-09T06:56:50.391Z,72.39
2024-04-09T06:59:17.149Z,71.19
2024-04-09T07:01:43.755Z,70.11
2024-04-09T07:04:10.819Z,70.17
2024-04-09T07:06:39.265Z,69.63
2024-04-09T07:09:07.000Z,69.29
2024-04-09T07:11:33.555Z,69.41
2024-04-09T07:14:00.165Z,68.41
2024-04-09T07:16:26.740Z,68.18
2024-04-09T07:18:53.387Z,66.89
2024-04-09T07:21:21.235Z,67.15
2024-04-09T07:23:48.693Z,66.41
2024-04-09T07:26:15.611Z,66.50
2024-04-09T07:28:42.146Z,64.36
2024-04-09T07:31:09.609Z,63.82
2024-04-09T07:33:36.470Z,63.67
2024-04-09T07:36:04.663Z,63.13
2024-04-09T07:38:31.390Z,63.15
2024-04-09T07:40:57.908Z,61.02
2024-04-09T07:43:24.410Z,61.92
2024-04-09T07:45:54.282Z,60.87
2024-04-09T07:48:21.552Z,59.83
2024-04-09T07:50:48.205Z,60.21
2024-04-09T07:53:15.847Z,59.11
2024-04-09T07:55:42.573Z,59.69
2024-04-09T07:58:09.825Z,60.13
2024-04-09T08:00:36.710Z,61.21
2024-04-09T08:03:03.834Z,58.88
2024-04-09T08:05:30.796Z,58.25
2024-04-09T08:07:57.688Z,59.86
2024-04-09T08:10:24.278Z,59.07
2024-04-09T08:12:58.891Z,59.65
2024-04-09T08:15:25.872Z,59.33
2024-04-09T08:17:52.491Z,58.97
2024-04-09T08:20:19.935Z,57.42
2024-04-09T08:22:50.591Z,57.57
2024-04-09T08:25:20.830Z,56.82
2024-04-09T08:27:47.775Z,57.22
2024-04-09T08:30:16.014Z,55.78
2024-04-09T08:32:43.145Z,56.43
2024-04-09T08:35:09.836Z,54.41
2024-04-09T08:37:36.502Z,54.56
2024-04-09T08:40:05.129Z,55.13
2024-04-09T08:42:32.177Z,53.96
2024-04-09T08:45:00.187Z,54.60
2024-04-09T08:47:27.255Z,53.59
2024-04-09T08:50:00.649Z,53.27
2024-04-09T08:52:30.565Z,52.86
2024-04-09T08:54:57.224Z,52.55
2024-04-09T08:57:33.217Z,52.56
2024-04-09T09:00:01.678Z,51.93
2024-04-09T09:02:28.778Z,51.32
2024-04-09T09:04:55.704Z,50.28
2024-04-09T09:07:25.920Z,51.15
2024-04-09T09:10:00.891Z,50.82
2024-04-09T09:12:27.615Z,51.50
2024-04-09T09:15:02.058Z,52.42
2024-04-09T09:17:32.629Z,51.53
2024-04-09T09:20:04.623Z,49.93
2024-04-09T09:22:36.872Z,51.52
2024-04-09T09:25:08.349Z,50.89
2024-04-09T09:27:36.916Z,51.08
2024-04-09T09:30:03.842Z,48.85
2024-04-09T09:32:31.384Z,48.61
2024-04-09T09:35:01.754Z,48.80
2024-04-09T09:37:32.212Z,49.02
2024-04-09T09:40:00.467Z,48.16
2024-04-09T09:42:27.790Z,47.94
2024-04-09T09:44:55.606Z,47.92
2024-04-09T09:47:23.700Z,47.81
2024-04-09T09:49:59.447Z,47.32
2024-04-09T09:52:29.526Z,46.22
2024-04-09T09:54:59.177Z,46.64
2024-04-09T09:57:29.559Z,46.30
2024-04-09T10:00:00.128Z,45.75
2024-04-09T10:02:30.966Z,46.30
2024-04-09T10:04:57.871Z,45.27
2024-04-09T10:07:25.013Z,45.66
2024-04-09T10:09:54.177Z,45.57
2024-04-09T10:12:22.392Z,46.11
2024-04-09T10:15:04.818Z,46.20
2024-04-09T10:17:53.053Z,44.87
2024-04-09T10:20:27.098Z,44.44
2024-04-09T10:22:55.338Z,43.94
2024-04-09T10:25:23.862Z,43.65
2024-04-09T10:28:08.310Z,44.68
2024-04-09T10:30:38.884Z,43.92
2024-04-09T10:33:07.101Z,44.65
2024-04-09T10:54:29.560Z,41.91
2024-04-09T11:53:49.958Z,33.88
2024-04-09T12:01:31.860Z,33.12
2024-04-09T12:28:38.082Z,33.87
2024-04-09T12:46:16.657Z,37.73
2024-04-09T12:53:27.513Z,37.81
2024-04-09T13:00:06.722Z,37.48
2024-04-09T13:06:15.183Z,35.66
2024-04-09T13:08:41.984Z,33.41
2024-04-09T13:11:08.672Z,34.19
2024-04-09T13:13:36.850Z,32.97
2024-04-09T13:16:50.393Z,34.18
2024-04-09T13:19:20.469Z,33.96
2024-04-09T13:21:47.859Z,33.96
2024-04-09T13:24:15.202Z,33.74
2024-04-09T13:26:41.876Z,34.21
2024-04-09T13:29:08.692Z,34.40
2024-04-09T13:31:35.383Z,34.42
2024-04-09T13:34:04.049Z,35.60
2024-04-09T13:36:30.908Z,36.21
2024-04-09T13:38:57.641Z,36.51
2024-04-09T13:41:24.297Z,36.47
2024-04-09T13:43:50.959Z,36.68
2024-04-09T13:46:19.202Z,36.32
2024-04-09T13:48:46.289Z,36.88
2024-04-09T13:51:13.093Z,37.36
2024-04-09T13:53:39.697Z,37.76
2024-04-09T13:56:06.538Z,37.29
2024-04-09T13:58:33.198Z,37.32
2024-04-09T14:00:59.805Z,36.97
2024-04-09T14:03:28.009Z,38.14
2024-04-09T14:05:55.144Z,39.18
2024-04-09T14:08:22.098Z,39.56
2024-04-09T14:10:49.004Z,40.57
2024-04-09T14:13:15.586Z,39.52
2024-04-09T14:15:42.215Z,40.18
2024-04-09T14:18:10.012Z,40.08
2024-04-09T14:20:36.731Z,39.48
2024-04-09T14:23:03.780Z,39.14
2024-04-09T14:25:31.418Z,39.78
2024-04-09T14:27:58.000Z,39.59
2024-04-09T14:30:25.527Z,39.26
2024-04-09T14:32:52.333Z,37.89
2024-04-09T14:35:19.137Z,37.41
2024-04-09T14:37:45.859Z,39.75
2024-04-09T14:40:12.582Z,39.16
2024-04-09T14:42:39.471Z,39.89
2024-04-09T14:45:06.188Z,40.45
2024-04-09T14:47:33.097Z,39.77
2024-04-09T14:50:00.048Z,40.21
2024-04-09T14:52:26.664Z,39.59
2024-04-09T14:54:55.923Z,41.37
2024-04-09T14:57:23.009Z,40.52
2024-04-09T14:59:49.589Z,39.81
2024-04-09T15:02:16.201Z,41.57
2024-04-09T15:04:48.049Z,42.59
2024-04-09T15:07:14.605Z,41.19
2024-04-09T15:09:43.148Z,43.38
2024-04-09T15:12:09.799Z,42.86
2024-04-09T15:14:36.490Z,42.62
2024-04-09T15:17:04.752Z,43.16
2024-04-09T15:19:31.498Z,45.94
2024-04-09T15:21:58.064Z,48.00
2024-04-09T15:24:24.574Z,47.08
2024-04-09T15:26:52.873Z,48.08
2024-04-09T15:29:19.453Z,48.22
2024-04-09T15:31:46.684Z,46.85
2024-04-09T15:34:13.335Z,46.60
2024-04-09T15:36:40.366Z,47.40
2024-04-09T15:39:10.444Z,48.67
2024-04-09T15:41:37.022Z,49.38
2024-04-09T15:44:03.660Z,49.93
2024-04-09T15:46:30.209Z,48.44
2024-04-09T15:48:56.814Z,48.99
2024-04-09T15:51:23.406Z,49.24
2024-04-09T15:53:49.900Z,49.57
2024-04-09T15:56:18.109Z,48.80
2024-04-09T15:58:44.723Z,50.54
2024-04-09T16:01:12.144Z,50.85
2024-04-09T16:03:42.771Z,51.41
2024-04-09T16:06:09.875Z,52.53
2024-04-09T16:08:36.445Z,52.40
2024-04-09T16:11:05.160Z,52.79
2024-04-09T16:13:34.181Z,53.67
2024-04-09T16:16:08.720Z,53.81
2024-04-09T16:18:35.691Z,54.71
2024-04-09T16:21:03.310Z,55.99
2024-04-09T16:23:30.375Z,55.74
2024-04-09T16:26:01.562Z,57.05
2024-04-09T16:28:28.143Z,57.26
2024-04-09T16:30:54.663Z,59.47
2024-04-09T16:33:21.266Z,60.04
2024-04-09T16:35:47.920Z,60.64
2024-04-09T16:38:14.543Z,59.78
2024-04-09T16:40:41.843Z,60.09
2024-04-09T16:43:08.527Z,61.99
2024-04-09T16:45:35.539Z,62.73
2024-04-09T16:48:02.389Z,63.15
2024-04-09T16:50:29.108Z,62.90
2024-04-09T16:52:55.679Z,64.30
2024-04-09T16:55:22.286Z,64.75
2024-04-09T16:57:48.828Z,65.53
2024-04-09T17:00:15.989Z,67.46
2024-04-09T17:02:43.590Z,67.69
2024-04-09T17:05:12.184Z,70.85
2024-04-09T17:07:40.265Z,72.01
2024-04-09T17:10:14.208Z,72.01
2024-04-09T17:12:43.493Z,73.00
2024-04-09T17:15:10.112Z,74.13
2024-04-09T17:17:37.595Z,75.24
2024-04-09T17:20:09.221Z,75.40
2024-04-09T17:22:35.927Z,76.45
2024-04-09T17:25:04.806Z,77.08
2024-04-09T17:27:33.697Z,78.17
2024-04-09T17:30:00.942Z,79.70
2024-04-09T17:32:32.197Z,80.43
2024-04-09T17:35:00.807Z,80.72
2024-04-09T17:37:27.779Z,81.79
2024-04-09T17:39:54.319Z,82.32
2024-04-09T17:42:20.872Z,83.08
2024-04-09T17:44:47.682Z,84.06
2024-04-09T17:47:14.490Z,83.57
2024-04-09T17:49:41.610Z,82.74
2024-04-09T17:52:08.534Z,82.42
2024-04-09T17:54:35.363Z,82.61
2024-04-09T17:57:02.304Z,81.35
2024-04-09T17:59:29.247Z,80.20
2024-04-09T18:01:56.187Z,79.32
2024-04-09T18:04:24.570Z,79.67
2024-04-09T18:06:51.201Z,80.25
2024-04-09T18:09:18.125Z,78.97
2024-04-09T18:11:45.403Z,79.04
2024-04-09T18:14:12.118Z,76.83
2024-04-09T18:16:38.867Z,78.11
2024-04-09T18:19:06.873Z,76.43
2024-04-09T18:21:33.623Z,76.82
2024-04-09T18:24:01.188Z,75.89
2024-04-09T18:26:27.878Z,75.07
2024-04-09T18:28:55.365Z,75.00
2024-04-09T18:31:22.006Z,74.82
2024-04-09T18:33:48.794Z,74.36
2024-04-09T18:36:15.444Z,74.46
2024-04-09T18:38:42.013Z,73.46
2024-04-09T18:41:10.020Z,73.86
2024-04-09T18:43:38.180Z,74.06
2024-04-09T18:46:04.766Z,74.29
2024-04-09T18:48:32.743Z,72.85
2024-04-09T18:50:59.579Z,72.84
2024-04-09T18:53:26.412Z,72.09
2024-04-09T18:55:52.996Z,72.06
2024-04-09T18:58:19.642Z,72.00
2024-04-09T19:00:46.578Z,72.49
2024-04-09T19:03:13.512Z,72.00
2024-04-09T19:05:42.468Z,71.33
2024-04-09T19:08:09.782Z,71.67
2024-04-09T19:10:41.788Z,72.28
2024-04-09T19:13:08.503Z,71.58
2024-04-09T19:15:35.905Z,72.37
2024-04-09T19:18:03.081Z,72.21
2024-04-09T19:20:29.782Z,72.31
2024-04-09T19:22:58.028Z,72.46
2024-04-09T19:25:25.079Z,72.83
2024-04-09T19:27:51.788Z,73.56
2024-04-09T19:30:19.137Z,73.36
2024-04-09T19:32:45.963Z,72.62
2024-04-09T19:35:12.646Z,72.63
2024-04-09T19:37:39.263Z,72.85
2024-04-09T19:40:09.860Z,73.79
2024-04-09T19:42:36.536Z,71.99
2024-04-09T19:45:04.269Z,71.94
2024-04-09T19:47:31.485Z,70.91
2024-04-09T19:49:59.567Z,68.85
2024-04-09T19:52:27.237Z,67.43
2024-04-09T19:54:53.831Z,67.84
2024-04-09T19:57:20.410Z,66.18
2024-04-09T19:59:46.995Z,64.77
2024-04-09T20:02:13.593Z,64.51
2024-04-09T20:04:40.292Z,65.09
2024-04-09T20:07:07.093Z,64.67
2024-04-09T20:09:33.852Z,64.78
2024-04-09T20:12:01.079Z,65.45
2024-04-09T20:14:28.357Z,63.88
2024-04-09T20:16:55.134Z,64.21
2024-04-09T20:19:21.921Z,64.24
2024-04-09T20:21:49.829Z,63.90
2024-04-09T20:24:16.436Z,63.82
2024-04-09T20:26:42.990Z,64.72
2024-04-09T20:29:10.935Z,65.57
2024-04-09T20:31:42.445Z,67.02
2024-04-09T20:34:09.590Z,70.89
2024-04-09T20:36:36.383Z,75.11
2024-04-09T20:39:06.342Z,78.03
2024-04-09T20:41:34.434Z,77.72
2024-04-09T20:44:02.677Z,77.61
2024-04-09T20:46:29.832Z,78.72
2024-04-09T20:48:56.657Z,79.45
2024-04-09T20:51:25.065Z,81.25
2024-04-09T20:53:51.945Z,82.17
2024-04-09T20:56:18.640Z,79.45
2024-04-09T20:58:45.291Z,79.43
2024-04-09T21:01:11.925Z,81.21
2024-04-09T21:03:39.558Z,82.85
2024-04-09T21:06:06.330Z,85.17
2024-04-09T21:08:33.294Z,88.29
2024-04-09T21:11:00.477Z,90.11
2024-04-09T21:13:27.252Z,93.11
2024-04-09T21:15:54.221Z,98.60
2024-04-09T21:18:21.008Z,100.00
2024-04-09T21:20:47.777Z,100.00
2024-04-09T21:23:14.379Z,100.00
2024-04-09T21:25:43.224Z,100.00
2024-04-09T21:28:09.760Z,100.00
2024-04-09T21:30:36.506Z,100.00
2024-04-09T21:33:04.623Z,100.00
2024-04-09T21:35:32.788Z,100.00
2024-04-09T21:37:59.554Z,100.00
2024-04-09T21:40:26.265Z,100.00
2024-04-09T21:42:52.922Z,100.00
2024-04-09T21:45:19.599Z,100.00
2024-04-09T21:47:46.467Z,100.00
2024-04-09T21:50:13.543Z,100.00
2024-04-09T21:52:40.122Z,100.00
2024-04-09T21:55:07.185Z,100.00
2024-04-09T21:57:33.774Z,100.00
2024-04-09T22:00:00.446Z,100.00
2024-04-09T22:02:27.543Z,100.00
2024-04-09T22:04:54.362Z,100.00
2024-04-09T22:07:21.039Z,100.00
2024-04-09T22:09:50.487Z,100.00
2024-04-09T22:12:17.359Z,100.00
2024-04-09T22:14:44.043Z,100.00
2024-04-09T22:17:10.681Z,100.00
2024-04-09T22:19:37.246Z,100.00
2024-04-09T22:22:03.952Z,100.00
2024-04-09T22:24:30.871Z,100.00
2024-04-09T22:26:57.627Z,100.00
2024-04-09T22:29:24.223Z,100.00
2024-04-09T22:31:50.837Z,100.00
2024-04-09T22:34:17.533Z,100.00
2024-04-09T22:36:44.133Z,100.00
2024-04-09T22:39:13.812Z,100.00
2024-04-09T22:41:40.317Z,100.00
2024-04-09T22:44:07.158Z,100.00
2024-04-09T22:46:33.702Z,100.00
2024-04-09T22:49:00.468Z,100.00
2024-04-09T22:51:27.105Z,100.00
2024-04-09T22:53:54.249Z,100.00
2024-04-09T22:56:20.867Z,100.00
2024-04-09T22:58:47.568Z,100.00
2024-04-09T23:01:14.855Z,100.00
2024-04-09T23:03:41.770Z,100.00
2024-04-09T23:06:09.759Z,100.00
2024-04-09T23:08:37.101Z,100.00
2024-04-09T23:11:04.892Z,100.00
2024-04-09T23:13:31.916Z,100.00
2024-04-09T23:16:03.053Z,100.00
2024-04-09T23:18:29.959Z,100.00
2024-04-09T23:20:58.144Z,100.00
2024-04-09T23:23:25.924Z,100.00
2024-04-09T23:25:53.015Z,100.00
2024-04-09T23:28:19.976Z,100.00
2024-04-09T23:30:46.507Z,100.00
2024-04-09T23:33:13.308Z,100.00
2024-04-09T23:35:40.591Z,100.00
2024-04-09T23:38:08.020Z,100.00
2024-04-09T23:40:41.504Z,100.00
2024-04-09T23:43:10.817Z,100.00
2024-04-09T23:45:37.935Z,100.00
2024-04-09T23:48:05.621Z,100.00
2024-04-09T23:50:32.629Z,100.00
2024-04-09T23:52:59.258Z,100.00
2024-04-09T23:55:25.845Z,100.00
2024-04-09T23:57:52.358Z,100.00
